createdAt,value
2022-08-17T00:00:05.665Z,36.27
2022-08-17T00:02:32.709Z,36.85
2022-08-17T00:05:05.677Z,36.22
2022-08-17T00:07:32.601Z,37.45
2022-08-17T00:09:59.641Z,34.53
2022-08-17T00:12:43.155Z,36.50
2022-08-17T00:15:14.366Z,37.08
2022-08-17T00:17:44.535Z,35.70
2022-08-17T00:20:13.323Z,37.40
2022-08-17T00:22:41.914Z,34.63
2022-08-17T00:25:14.993Z,33.63
2022-08-17T00:27:42.166Z,35.30
2022-08-17T00:30:12.025Z,36.15
2022-08-17T00:33:15.013Z,36.20
2022-08-17T00:35:30.932Z,33.85
2022-08-17T00:37:57.840Z,35.97
2022-08-17T00:40:24.955Z,39.28
2022-08-17T00:42:53.279Z,34.78
2022-08-17T00:45:21.020Z,33.05
2022-08-17T00:47:49.396Z,37.25
2022-08-17T00:50:19.609Z,33.40
2022-08-17T00:52:55.273Z,33.65
2022-08-17T00:55:24.788Z,31.90
2022-08-17T00:57:57.727Z,33.80
2022-08-17T01:00:30.381Z,35.22
2022-08-17T01:03:13.884Z,31.33
2022-08-17T01:05:42.587Z,32.58
2022-08-17T01:08:13.362Z,31.02
2022-08-17T01:10:59.735Z,29.17
2022-08-17T01:13:40.835Z,31.90
2022-08-17T01:16:26.190Z,29.13
2022-08-17T01:18:59.957Z,28.00
2022-08-17T01:21:47.537Z,30.65
2022-08-17T01:24:15.247Z,28.42
2022-08-17T01:26:43.492Z,28.67
2022-08-17T01:29:11.497Z,27.70
2022-08-17T01:31:45.817Z,29.95
2022-08-17T01:34:16.262Z,25.52
2022-08-17T01:36:48.062Z,25.75
2022-08-17T01:39:31.822Z,28.60
2022-08-17T01:42:21.762Z,26.00
2022-08-17T01:44:49.345Z,26.63
2022-08-17T01:47:16.265Z,30.10
2022-08-17T01:49:44.569Z,35.40
2022-08-17T01:52:13.083Z,33.55
2022-08-17T01:54:45.480Z,31.00
2022-08-17T01:57:12.906Z,33.08
2022-08-17T01:59:40.044Z,35.05
2022-08-17T02:02:07.768Z,31.65
2022-08-17T02:04:34.866Z,36.10
2022-08-17T02:07:02.064Z,34.80
2022-08-17T02:09:30.286Z,31.17
2022-08-17T02:11:59.805Z,38.45
2022-08-17T02:14:46.733Z,37.08
2022-08-17T02:17:13.899Z,33.05
2022-08-17T02:19:41.179Z,37.97
2022-08-17T02:22:08.218Z,37.47
2022-08-17T02:25:00.889Z,41.22
2022-08-17T02:27:25.019Z,41.42
2022-08-17T02:29:52.174Z,34.95
2022-08-17T02:32:27.970Z,34.43
2022-08-17T02:34:57.888Z,31.88
2022-08-17T02:37:26.587Z,34.53
2022-08-17T02:39:54.010Z,34.88
2022-08-17T02:42:29.469Z,30.60
2022-08-17T02:44:56.419Z,30.33
2022-08-17T02:47:24.484Z,30.10
2022-08-17T02:49:55.891Z,29.90
2022-08-17T02:52:42.893Z,29.50
2022-08-17T02:55:26.729Z,31.27
2022-08-17T02:57:54.503Z,30.40
2022-08-17T03:00:35.475Z,33.67
2022-08-17T03:03:05.285Z,30.40
2022-08-17T03:05:36.037Z,31.35
2022-08-17T03:08:04.695Z,31.58
2022-08-17T03:10:31.720Z,31.43
2022-08-17T03:12:59.637Z,31.13
2022-08-17T03:15:31.388Z,27.23
2022-08-17T03:18:00.217Z,30.33
2022-08-17T03:20:30.055Z,26.77
2022-08-17T03:23:02.935Z,27.40
2022-08-17T03:25:37.706Z,24.92
2022-08-17T03:28:07.051Z,26.92
2022-08-17T03:30:34.756Z,23.48
2022-08-17T03:33:05.374Z,23.73
2022-08-17T03:35:34.771Z,25.83
2022-08-17T03:38:01.756Z,27.70
2022-08-17T03:40:36.978Z,25.45
2022-08-17T03:43:18.754Z,21.52
2022-08-17T03:46:04.503Z,22.88
2022-08-17T03:48:51.517Z,26.80
2022-08-17T03:51:43.816Z,23.27
2022-08-17T03:54:31.205Z,24.10
2022-08-17T03:57:09.641Z,23.77
2022-08-17T03:59:38.065Z,21.20
2022-08-17T04:02:11.744Z,20.03
2022-08-17T04:04:39.519Z,20.05
2022-08-17T04:07:07.329Z,19.88
2022-08-17T04:09:34.906Z,20.80
2022-08-17T04:12:02.556Z,17.33
2022-08-17T04:14:36.276Z,18.37
2022-08-17T04:17:21.130Z,19.17
2022-08-17T04:19:48.074Z,18.48
2022-08-17T04:22:32.737Z,21.38
2022-08-17T04:25:09.498Z,19.90
2022-08-17T04:27:37.092Z,20.37
2022-08-17T04:30:07.186Z,17.40
2022-08-17T04:33:07.311Z,19.65
2022-08-17T04:35:42.121Z,21.77
2022-08-17T04:38:13.507Z,21.85
2022-08-17T04:40:59.443Z,24.93
2022-08-17T04:43:28.692Z,23.40
2022-08-17T04:46:03.042Z,22.92
2022-08-17T04:48:36.328Z,23.02
2022-08-17T04:51:13.188Z,27.10
2022-08-17T04:53:47.605Z,27.33
2022-08-17T04:56:22.168Z,28.92
2022-08-17T04:58:51.749Z,31.27
2022-08-17T05:01:24.025Z,30.40
2022-08-17T05:03:56.775Z,28.67
2022-08-17T05:06:24.431Z,27.70
2022-08-17T05:08:51.846Z,26.80
2022-08-17T05:11:18.886Z,24.55
2022-08-17T05:13:45.991Z,24.83
2022-08-17T05:16:13.245Z,24.88
2022-08-17T05:18:40.228Z,26.00
2022-08-17T05:21:07.491Z,25.90
2022-08-17T05:23:41.808Z,24.75
2022-08-17T05:26:23.135Z,24.67
2022-08-17T05:29:00.375Z,23.08
2022-08-17T05:31:30.723Z,22.00
2022-08-17T05:33:57.955Z,24.52
2022-08-17T05:36:41.902Z,20.17
2022-08-17T05:39:15.882Z,17.90
2022-08-17T05:41:46.925Z,20.23
2022-08-17T05:44:14.111Z,18.33
2022-08-17T05:46:45.776Z,13.82
2022-08-17T05:49:15.535Z,14.15
2022-08-17T05:52:21.025Z,14.18
2022-08-17T05:55:41.592Z,12.23
2022-08-17T05:58:18.505Z,12.77
2022-08-17T06:01:18.720Z,15.20
2022-08-17T06:04:06.462Z,10.35
2022-08-17T06:06:52.426Z,11.35
2022-08-17T06:09:40.100Z,11.90
2022-08-17T06:12:47.231Z,14.13
2022-08-17T06:15:53.657Z,12.00
2022-08-17T06:18:23.720Z,13.02
2022-08-17T06:20:56.688Z,13.90
2022-08-17T06:23:41.749Z,11.57
2022-08-17T06:26:20.529Z,13.53
2022-08-17T06:29:22.297Z,13.85
2022-08-17T06:31:50.902Z,12.70
2022-08-17T06:34:19.344Z,14.60
2022-08-17T06:37:31.396Z,15.32
2022-08-17T06:40:34.617Z,14.07
2022-08-17T06:43:26.106Z,16.10
2022-08-17T06:46:07.731Z,16.40
2022-08-17T06:48:48.927Z,16.80
2022-08-17T06:51:35.716Z,16.45
2022-08-17T06:54:24.508Z,17.40
2022-08-17T06:57:22.588Z,19.50
2022-08-17T07:00:12.976Z,18.45
2022-08-17T07:02:51.950Z,17.88
2022-08-17T07:05:26.016Z,19.58
2022-08-17T07:08:35.183Z,19.17
2022-08-17T07:11:15.794Z,19.83
2022-08-17T07:14:17.201Z,19.63
2022-08-17T07:16:52.829Z,20.02
2022-08-17T07:19:24.261Z,17.05
2022-08-17T07:22:21.986Z,21.67
2022-08-17T07:24:58.197Z,18.38
2022-08-17T07:27:33.218Z,18.85
2022-08-17T07:30:23.324Z,21.58
2022-08-17T07:32:57.729Z,20.48
2022-08-17T07:35:31.376Z,20.67
2022-08-17T07:38:27.600Z,21.38
2022-08-17T07:41:04.742Z,28.20
2022-08-17T07:43:40.364Z,27.77
2022-08-17T07:46:36.680Z,25.70
2022-08-17T07:49:03.583Z,23.03
2022-08-17T07:51:45.442Z,23.65
2022-08-17T07:54:22.705Z,28.95
2022-08-17T07:56:52.435Z,29.75
2022-08-17T07:59:35.085Z,28.13
2022-08-17T08:02:25.766Z,33.40
2022-08-17T08:05:30.833Z,30.10
2022-08-17T08:08:26.651Z,37.17
2022-08-17T08:11:03.650Z,34.35
2022-08-17T08:13:32.315Z,30.83
2022-08-17T08:16:19.757Z,29.23
2022-08-17T08:18:54.664Z,31.02
2022-08-17T08:21:36.861Z,24.88
2022-08-17T08:24:19.471Z,18.00
2022-08-17T08:27:23.374Z,17.17
2022-08-17T08:30:06.825Z,15.70
2022-08-17T08:33:10.949Z,17.48
2022-08-17T08:35:47.116Z,14.05
2022-08-17T08:38:35.495Z,12.27
2022-08-17T08:41:52.401Z,13.23
2022-08-17T08:44:59.899Z,12.73
2022-08-17T08:47:45.947Z,14.57
2022-08-17T08:50:38.730Z,11.25
2022-08-17T08:53:18.944Z,12.30
2022-08-17T08:55:54.378Z,15.05
2022-08-17T08:59:10.036Z,14.53
2022-08-17T09:02:00.306Z,14.05
2022-08-17T09:05:10.679Z,12.63
2022-08-17T09:07:54.749Z,13.18
2022-08-17T09:10:46.272Z,13.20
2022-08-17T09:13:40.020Z,15.00
2022-08-17T09:16:16.823Z,12.65
2022-08-17T09:19:00.480Z,12.85
2022-08-17T09:21:53.028Z,11.90
2022-08-17T09:24:44.628Z,11.57
2022-08-17T09:27:28.123Z,12.70
2022-08-17T09:30:10.169Z,13.55
2022-08-17T09:32:44.208Z,11.82
2022-08-17T09:35:24.966Z,16.98
2022-08-17T09:38:20.394Z,12.98
2022-08-17T09:41:15.690Z,15.13
2022-08-17T09:44:08.570Z,19.10
2022-08-17T09:47:45.315Z,23.55
2022-08-17T09:51:05.378Z,20.60
2022-08-17T09:53:36.563Z,21.15
2022-08-17T09:56:46.181Z,24.37
2022-08-17T09:59:40.186Z,18.65
2022-08-17T10:02:54.281Z,19.10
2022-08-17T10:05:46.185Z,18.35
2022-08-17T10:09:08.299Z,16.95
2022-08-17T10:12:17.416Z,17.57
2022-08-17T10:15:42.473Z,18.52
2022-08-17T10:18:56.472Z,20.60
2022-08-17T10:21:44.353Z,15.15
2022-08-17T10:25:22.115Z,13.27
2022-08-17T10:27:52.474Z,13.47
2022-08-17T10:30:27.777Z,13.23
2022-08-17T10:33:06.593Z,12.85
2022-08-17T10:36:10.638Z,14.73
2022-08-17T10:38:56.781Z,13.63
2022-08-17T10:41:40.778Z,12.43
2022-08-17T10:44:38.759Z,15.35
2022-08-17T10:47:16.213Z,15.63
2022-08-17T10:49:54.044Z,15.45
2022-08-17T10:52:25.801Z,14.77
2022-08-17T10:54:54.877Z,15.50
2022-08-17T10:57:41.878Z,17.13
2022-08-17T11:00:27.887Z,16.77
2022-08-17T11:02:57.320Z,18.92
2022-08-17T11:06:09.425Z,16.90
2022-08-17T11:09:31.204Z,18.63
2022-08-17T11:12:17.420Z,18.45
2022-08-17T11:14:57.760Z,15.23
2022-08-17T11:17:49.567Z,17.52
2022-08-17T11:20:35.677Z,20.90
2022-08-17T11:23:48.986Z,17.50
2022-08-17T11:26:27.164Z,21.02
2022-08-17T11:29:01.453Z,23.45
2022-08-17T11:31:39.901Z,22.98
2022-08-17T11:34:14.473Z,27.67
2022-08-17T11:37:26.903Z,25.23
2022-08-17T11:40:56.335Z,33.22
2022-08-17T11:43:45.717Z,33.80
2022-08-17T11:47:01.290Z,35.42
2022-08-17T11:50:15.489Z,35.40
2022-08-17T11:52:49.782Z,41.33
2022-08-17T11:55:44.413Z,38.67
2022-08-17T11:58:45.821Z,44.83
2022-08-17T12:01:26.781Z,46.50
2022-08-17T12:04:25.684Z,46.60
2022-08-17T12:07:18.396Z,45.50
2022-08-17T12:09:50.209Z,52.83
2022-08-17T12:12:29.594Z,49.22
2022-08-17T12:15:10.210Z,51.38
2022-08-17T12:17:41.586Z,49.78
2022-08-17T12:20:18.463Z,47.77
2022-08-17T12:23:04.236Z,50.30
2022-08-17T12:25:59.808Z,39.90
2022-08-17T12:28:30.646Z,57.15
2022-08-17T12:31:15.498Z,52.65
2022-08-17T12:33:45.922Z,47.10
2022-08-17T12:36:21.227Z,54.05
2022-08-17T12:39:13.290Z,56.50
2022-08-17T12:41:48.216Z,45.33
2022-08-17T12:44:24.780Z,50.25
2022-08-17T12:47:21.797Z,53.03
2022-08-17T12:49:53.360Z,66.63
2022-08-17T12:52:25.055Z,45.55
2022-08-17T12:54:59.456Z,44.28
2022-08-17T12:57:38.666Z,53.47
2022-08-17T13:00:47.272Z,47.33
2022-08-17T13:03:24.624Z,44.90
2022-08-17T13:06:06.073Z,43.63
2022-08-17T13:08:46.122Z,44.13
2022-08-17T13:11:18.850Z,50.10
2022-08-17T13:13:51.368Z,69.57
2022-08-17T13:16:26.633Z,43.88
2022-08-17T13:19:15.407Z,52.40
2022-08-17T13:21:56.182Z,53.47
2022-08-17T13:24:38.073Z,43.83
2022-08-17T13:27:10.274Z,57.70
2022-08-17T13:29:53.378Z,53.03
2022-08-17T13:32:43.642Z,77.60
2022-08-17T13:35:49.318Z,75.68
2022-08-17T13:38:47.028Z,60.95
2022-08-17T13:41:37.608Z,81.03
2022-08-17T13:44:30.220Z,89.82
2022-08-17T13:46:59.464Z,60.17
2022-08-17T13:49:48.050Z,75.97
2022-08-17T13:52:43.768Z,69.75
2022-08-17T13:55:22.135Z,48.27
2022-08-17T13:58:03.619Z,58.15
2022-08-17T14:00:36.667Z,59.72
2022-08-17T14:03:05.360Z,60.97
2022-08-17T14:05:33.756Z,43.10
2022-08-17T14:08:07.026Z,55.67
2022-08-17T14:10:36.278Z,52.22
2022-08-17T14:13:04.102Z,48.05
2022-08-17T14:15:54.966Z,48.20
2022-08-17T14:18:31.223Z,46.42
2022-08-17T14:21:08.229Z,64.37
2022-08-17T14:23:36.610Z,84.38
2022-08-17T14:26:04.002Z,49.08
2022-08-17T14:28:30.995Z,63.15
2022-08-17T14:31:00.266Z,62.30
2022-08-17T14:33:28.750Z,56.30
2022-08-17T14:35:57.364Z,57.42
2022-08-17T14:38:24.773Z,42.75
2022-08-17T14:40:52.065Z,54.60
2022-08-17T14:43:20.829Z,81.72
2022-08-17T14:45:47.872Z,81.27
2022-08-17T14:48:15.044Z,65.88
2022-08-17T14:50:44.189Z,62.33
2022-08-17T14:53:14.532Z,58.60
2022-08-17T14:55:41.835Z,46.28
2022-08-17T14:58:09.518Z,48.53
2022-08-17T15:00:37.433Z,49.13
2022-08-17T15:03:05.216Z,40.63
2022-08-17T15:05:36.518Z,40.42
2022-08-17T15:08:05.451Z,52.28
2022-08-17T15:10:33.261Z,61.73
2022-08-17T15:13:01.092Z,54.90
2022-08-17T15:15:29.074Z,52.47
2022-08-17T15:17:56.678Z,51.35
2022-08-17T15:20:28.386Z,51.17
2022-08-17T15:22:57.266Z,49.07
2022-08-17T15:25:28.810Z,49.78
2022-08-17T15:27:56.150Z,38.92
2022-08-17T15:30:24.526Z,45.78
2022-08-17T15:32:55.074Z,42.75
2022-08-17T15:35:28.213Z,42.43
2022-08-17T15:38:07.970Z,33.80
2022-08-17T15:40:41.289Z,38.88
2022-08-17T15:43:13.054Z,37.55
2022-08-17T15:45:41.099Z,54.05
2022-08-17T15:48:09.043Z,51.90
2022-08-17T15:50:36.742Z,38.53
2022-08-17T15:53:04.799Z,40.85
2022-08-17T15:55:34.128Z,49.88
2022-08-17T15:58:01.832Z,37.30
2022-08-17T16:00:29.364Z,32.67
2022-08-17T16:03:46.393Z,36.88
2022-08-17T16:05:50.041Z,34.33
2022-08-17T16:08:21.136Z,40.28
2022-08-17T16:10:50.180Z,34.05
2022-08-17T16:13:18.671Z,30.53
2022-08-17T16:15:56.213Z,26.63
2022-08-17T16:18:31.575Z,29.15
2022-08-17T16:21:21.374Z,29.70
2022-08-17T16:23:51.667Z,26.23
2022-08-17T16:26:19.405Z,28.77
2022-08-17T16:28:47.168Z,27.33
2022-08-17T16:31:14.646Z,25.95
2022-08-17T16:33:41.918Z,25.75
2022-08-17T16:36:09.238Z,23.95
2022-08-17T16:38:38.491Z,28.03
2022-08-17T16:41:06.623Z,29.08
2022-08-17T16:43:34.804Z,29.35
2022-08-17T16:46:02.595Z,26.70
2022-08-17T16:48:30.489Z,29.52
2022-08-17T16:51:04.433Z,29.47
2022-08-17T16:53:32.110Z,27.75
2022-08-17T16:55:59.067Z,27.90
2022-08-17T16:58:26.129Z,29.00
2022-08-17T17:00:54.312Z,30.23
2022-08-17T17:03:25.369Z,33.03
2022-08-17T17:06:18.770Z,34.20
2022-08-17T17:08:56.067Z,36.13
2022-08-17T17:11:40.773Z,31.63
2022-08-17T17:14:18.162Z,35.28
2022-08-17T17:16:52.244Z,35.00
2022-08-17T17:19:38.554Z,36.28
2022-08-17T17:22:34.467Z,39.00
2022-08-17T17:25:24.556Z,37.85
2022-08-17T17:28:06.566Z,33.30
2022-08-17T17:31:09.280Z,37.70
2022-08-17T17:33:48.740Z,36.20
2022-08-17T17:36:39.865Z,38.60
2022-08-17T17:39:20.825Z,38.45
2022-08-17T17:41:53.303Z,44.75
2022-08-17T17:44:37.430Z,42.27
2022-08-17T17:47:05.737Z,39.15
2022-08-17T17:49:44.042Z,41.10
2022-08-17T17:52:26.852Z,41.40
2022-08-17T17:55:17.936Z,40.50
2022-08-17T17:58:03.505Z,36.77
2022-08-17T18:00:50.593Z,46.80
2022-08-17T18:03:54.674Z,41.30
2022-08-17T18:06:33.549Z,46.70
2022-08-17T18:09:28.836Z,43.40
2022-08-17T18:12:26.437Z,43.83
2022-08-17T18:15:08.178Z,42.97
2022-08-17T18:17:36.186Z,46.60
2022-08-17T18:20:06.933Z,49.88
2022-08-17T18:22:34.093Z,49.75
2022-08-17T18:25:01.039Z,50.80
2022-08-17T18:27:34.800Z,46.88
2022-08-17T18:30:24.735Z,46.33
2022-08-17T18:32:51.909Z,47.90
2022-08-17T18:35:18.806Z,49.20
2022-08-17T18:38:33.587Z,46.47
2022-08-17T18:41:25.274Z,53.00
2022-08-17T18:44:06.413Z,58.92
2022-08-17T18:46:37.817Z,61.15
2022-08-17T18:49:27.041Z,71.05
2022-08-17T18:52:27.731Z,78.80
2022-08-17T18:55:24.377Z,90.38
2022-08-17T18:57:59.761Z,128.10
2022-08-17T19:00:40.701Z,93.93
2022-08-17T19:03:19.368Z,61.58
2022-08-17T19:05:53.767Z,86.03
2022-08-17T19:08:29.401Z,120.00
2022-08-17T19:11:05.660Z,124.97
2022-08-17T19:13:53.547Z,74.07
2022-08-17T19:17:07.809Z,84.88
2022-08-17T19:19:53.972Z,71.37
2022-08-17T19:22:42.167Z,55.67
2022-08-17T19:25:19.586Z,148.02
2022-08-17T19:28:21.613Z,120.32
2022-08-17T19:30:57.882Z,141.02
2022-08-17T19:33:25.523Z,131.43
2022-08-17T19:36:10.353Z,115.75
2022-08-17T19:38:50.745Z,142.60
2022-08-17T19:41:48.297Z,220.93
2022-08-17T19:45:02.940Z,140.38
2022-08-17T19:47:55.907Z,194.80
2022-08-17T19:50:56.909Z,124.35
2022-08-17T19:54:05.040Z,119.13
2022-08-17T19:57:11.292Z,58.70
2022-08-17T20:00:18.977Z,146.15
2022-08-17T20:02:58.853Z,95.53
2022-08-17T20:06:01.019Z,133.68
2022-08-17T20:08:31.562Z,74.30
2022-08-17T20:11:21.945Z,85.38
2022-08-17T20:14:14.585Z,74.60
2022-08-17T20:16:41.910Z,49.33
2022-08-17T20:19:24.953Z,106.97
2022-08-17T20:22:08.028Z,140.98
2022-08-17T20:24:53.250Z,72.25
2022-08-17T20:27:31.974Z,137.45
2022-08-17T20:30:10.216Z,129.73
2022-08-17T20:32:55.163Z,75.53
2022-08-17T20:35:30.179Z,82.18
2022-08-17T20:38:05.601Z,78.88
2022-08-17T20:40:54.920Z,84.75
2022-08-17T20:43:38.270Z,114.67
2022-08-17T20:46:36.029Z,58.13
2022-08-17T20:49:08.817Z,67.28
2022-08-17T20:52:13.323Z,63.30
2022-08-17T20:54:57.199Z,67.35
2022-08-17T20:57:33.033Z,94.50
2022-08-17T21:00:15.547Z,99.68
2022-08-17T21:02:50.049Z,54.85
2022-08-17T21:05:32.371Z,72.93
2022-08-17T21:08:16.568Z,74.38
2022-08-17T21:10:46.970Z,49.73
2022-08-17T21:13:15.438Z,44.30
2022-08-17T21:15:42.613Z,43.90
2022-08-17T21:18:26.075Z,56.95
2022-08-17T21:21:17.884Z,48.22
2022-08-17T21:24:19.239Z,37.53
2022-08-17T21:27:05.220Z,54.80
2022-08-17T21:29:33.929Z,52.58
2022-08-17T21:32:09.502Z,105.45
2022-08-17T21:35:23.123Z,66.72
2022-08-17T21:38:02.325Z,63.23
2022-08-17T21:40:33.321Z,37.95
2022-08-17T21:43:28.139Z,79.55
2022-08-17T21:46:11.101Z,38.88
2022-08-17T21:48:48.237Z,50.90
2022-08-17T21:51:23.785Z,42.27
2022-08-17T21:53:56.514Z,35.80
2022-08-17T21:56:29.720Z,57.58
2022-08-17T21:59:05.070Z,46.83
2022-08-17T22:01:39.564Z,55.40
2022-08-17T22:04:19.801Z,42.37
2022-08-17T22:06:56.805Z,30.10
2022-08-17T22:09:49.032Z,28.58
2022-08-17T22:12:24.363Z,30.90
2022-08-17T22:15:00.379Z,32.35
2022-08-17T22:17:35.864Z,38.93
2022-08-17T22:20:17.652Z,55.15
2022-08-17T22:23:12.392Z,45.85
2022-08-17T22:26:00.596Z,36.17
2022-08-17T22:28:52.679Z,43.92
2022-08-17T22:31:24.522Z,35.40
2022-08-17T22:34:14.364Z,33.28
2022-08-17T22:36:42.451Z,34.85
2022-08-17T22:39:09.290Z,36.50
2022-08-17T22:41:56.988Z,35.42
2022-08-17T22:44:44.566Z,29.10
2022-08-17T22:47:14.177Z,26.08
2022-08-17T22:49:59.395Z,27.85
2022-08-17T22:53:02.471Z,36.40
2022-08-17T22:55:51.036Z,43.35
2022-08-17T22:58:42.379Z,32.97
2022-08-17T23:01:32.239Z,30.02
2022-08-17T23:04:31.384Z,34.50
2022-08-17T23:06:58.644Z,41.33
2022-08-17T23:09:25.540Z,30.58
2022-08-17T23:11:58.426Z,37.37
2022-08-17T23:14:31.315Z,32.53
2022-08-17T23:16:59.422Z,37.85
2022-08-17T23:19:28.367Z,43.20
2022-08-17T23:21:57.267Z,33.47
2022-08-17T23:24:31.388Z,31.83
2022-08-17T23:26:58.920Z,33.40
2022-08-17T23:29:29.185Z,44.38
2022-08-17T23:31:59.529Z,32.70
2022-08-17T23:34:27.968Z,40.10
2022-08-17T23:36:55.722Z,32.93
2022-08-17T23:39:27.591Z,41.88
2022-08-17T23:41:58.168Z,33.30
2022-08-17T23:44:26.891Z,30.90
2022-08-17T23:46:54.505Z,29.70
2022-08-17T23:49:21.501Z,30.03
2022-08-17T23:51:49.668Z,38.95
2022-08-17T23:54:37.377Z,33.38
2022-08-17T23:57:05.089Z,30.30
2022-08-17T23:59:33.752Z,35.90
